Time;durP1;ratioP1;P1;durP2;ratioP2;P2;SDS_P1;SDS_P2;PMS_P1;PMS_P2;Temp;Humidity;BMP_temperature;BMP_pressure;BME280_temperature;BME280_humidity;BME280_pressure;Samples;Min_cycle;Max_cycle;Signal;HPM_P1;HPM_P2
2023/01/11 00:00:27;;;;;;;1.90;0.40;;;;;;;;;;5055996;28;20215;-67
2023/01/11 00:02:58;;;;;;;0.90;0.53;;;;;;;;;;5052663;28;20211;-66
2023/01/11 00:05:25;;;;;;;6.93;0.50;;;;;;;;;;5049549;28;20215;-67
2023/01/11 00:07:52;;;;;;;0.80;0.53;;;;;;;;;;5063079;28;20211;-67
2023/01/11 00:10:21;;;;;;;1.50;0.40;;;;;;;;;;5056092;28;20235;-67
2023/01/11 00:12:48;;;;;;;0.70;0.40;;;;;;;;;;5055661;28;20587;-66
2023/01/11 00:15:15;;;;;;;3.27;0.70;;;;;;;;;;5048412;28;20269;-67
2023/01/11 00:17:43;;;;;;;0.30;0.30;;;;;;;;;;5060145;28;20607;-67
2023/01/11 00:20:18;;;;;;;0.40;0.40;;;;;;;;;;5048046;28;20265;-66
2023/01/11 00:22:45;;;;;;;1.00;0.70;;;;;;;;;;5048238;28;20669;-67
2023/01/11 00:25:12;;;;;;;1.87;0.97;;;;;;;;;;5047830;28;20230;-67
2023/01/11 00:27:40;;;;;;;1.80;0.33;;;;;;;;;;5050459;28;20261;-67
2023/01/11 00:30:08;;;;;;;2.23;0.70;;;;;;;;;;5053709;28;20227;-67
2023/01/11 00:32:35;;;;;;;2.07;0.73;;;;;;;;;;5053421;28;20208;-67
2023/01/11 00:35:02;;;;;;;0.30;0.27;;;;;;;;;;5061491;28;20770;-67
2023/01/11 00:37:29;;;;;;;2.20;0.40;;;;;;;;;;5057746;28;20292;-67
2023/01/11 00:39:56;;;;;;;4.30;0.40;;;;;;;;;;5048460;28;20261;-66
2023/01/11 00:47:59;;;;;;;0.63;0.60;;;;;;;;;;5050444;28;20279;-66
2023/01/11 00:50:26;;;;;;;0.53;0.40;;;;;;;;;;5048476;28;20235;-67
2023/01/11 00:52:53;;;;;;;2.43;0.30;;;;;;;;;;5064934;28;20257;-67
2023/01/11 00:55:20;;;;;;;2.87;0.40;;;;;;;;;;5066352;28;20207;-67
2023/01/11 00:57:47;;;;;;;0.83;0.40;;;;;;;;;;5050959;28;20593;-67
2023/01/11 01:00:16;;;;;;;1.73;1.03;;;;;;;;;;5063443;28;20199;-66
2023/01/11 01:02:43;;;;;;;0.27;0.27;;;;;;;;;;5047808;28;20219;-67
2023/01/11 01:05:10;;;;;;;1.27;0.70;;;;;;;;;;5047922;28;20257;-67
2023/01/11 01:07:37;;;;;;;0.83;0.53;;;;;;;;;;5059401;28;20214;-67
2023/01/11 01:10:05;;;;;;;2.97;0.60;;;;;;;;;;5055639;28;20227;-68
2023/01/11 01:15:18;;;;;;;5.50;0.80;;;;;;;;;;5048536;28;20570;-67
2023/01/11 01:17:45;;;;;;;4.03;0.70;;;;;;;;;;5050235;28;20921;-67
2023/01/11 01:20:13;;;;;;;2.03;0.40;;;;;;;;;;5064665;28;20199;-67
2023/01/11 01:22:40;;;;;;;2.07;0.37;;;;;;;;;;5050101;28;20211;-67
2023/01/11 01:25:07;;;;;;;0.90;0.30;;;;;;;;;;5056004;28;20195;-67
2023/01/11 01:27:34;;;;;;;0.43;0.40;;;;;;;;;;5062112;28;20219;-67
2023/01/11 01:30:01;;;;;;;0.73;0.47;;;;;;;;;;5055442;28;20228;-67
2023/01/11 01:32:33;;;;;;;2.93;0.50;;;;;;;;;;5053854;28;20218;-67
2023/01/11 01:35:00;;;;;;;0.40;0.40;;;;;;;;;;5068934;28;20298;-67
2023/01/11 01:37:27;;;;;;;1.50;0.60;;;;;;;;;;5064656;28;20211;-67
2023/01/11 01:39:54;;;;;;;4.10;0.70;;;;;;;;;;5070810;28;20656;-67
2023/01/11 01:42:23;;;;;;;0.73;0.40;;;;;;;;;;5061848;28;20246;-67
2023/01/11 01:45:07;;;;;;;0.50;0.40;;;;;;;;;;5064806;28;20208;-67
2023/01/11 01:47:39;;;;;;;0.97;0.37;;;;;;;;;;5058290;28;20206;-67
2023/01/11 01:50:08;;;;;;;0.30;0.30;;;;;;;;;;5070799;28;20231;-67
2023/01/11 01:52:36;;;;;;;1.97;0.43;;;;;;;;;;5056023;28;20203;-67
2023/01/11 01:55:06;;;;;;;0.50;0.40;;;;;;;;;;5052533;28;20215;-67
2023/01/11 01:57:35;;;;;;;5.13;0.93;;;;;;;;;;5056307;28;20688;-67
2023/01/11 02:00:03;;;;;;;0.47;0.47;;;;;;;;;;5050144;28;20203;-67
2023/01/11 02:02:30;;;;;;;0.47;0.47;;;;;;;;;;5050437;28;20208;-66
2023/01/11 02:04:59;;;;;;;1.60;0.73;;;;;;;;;;5050092;28;20208;-67
2023/01/11 02:07:27;;;;;;;1.43;0.80;;;;;;;;;;5050576;28;20265;-67
2023/01/11 02:09:59;;;;;;;0.50;0.50;;;;;;;;;;5060742;28;20232;-66
2023/01/11 02:12:31;;;;;;;4.13;0.47;;;;;;;;;;5050804;28;20331;-67
2023/01/11 02:15:00;;;;;;;5.93;0.57;;;;;;;;;;5053490;28;20689;-67
2023/01/11 02:17:27;;;;;;;1.80;0.40;;;;;;;;;;5059127;28;20272;-67
2023/01/11 02:19:56;;;;;;;1.03;0.60;;;;;;;;;;5056965;28;20207;-67
2023/01/11 02:22:40;;;;;;;0.37;0.37;;;;;;;;;;5051368;28;20200;-67
2023/01/11 02:25:22;;;;;;;2.53;0.50;;;;;;;;;;5065244;28;20210;-67
2023/01/11 02:28:02;;;;;;;0.50;0.50;;;;;;;;;;5046540;28;20200;-67
2023/01/11 02:30:33;;;;;;;1.57;0.60;;;;;;;;;;5060447;28;20239;-67
2023/01/11 02:33:04;;;;;;;0.57;0.40;;;;;;;;;;5055459;28;20221;-66
2023/01/11 02:35:36;;;;;;;0.40;0.40;;;;;;;;;;5065380;28;20207;-65
2023/01/11 02:38:06;;;;;;;1.30;0.60;;;;;;;;;;5054324;28;20302;-66
2023/01/11 02:40:38;;;;;;;0.40;0.40;;;;;;;;;;5066804;28;20214;-66
2023/01/11 02:46:00;;;;;;;0.83;0.30;;;;;;;;;;5057660;28;20220;-66
2023/01/11 02:48:30;;;;;;;0.30;0.30;;;;;;;;;;5069043;28;20237;-65
2023/01/11 02:51:02;;;;;;;6.30;0.90;;;;;;;;;;5063242;28;20227;-66
2023/01/11 02:53:32;;;;;;;2.47;0.30;;;;;;;;;;5056145;28;20265;-67
2023/01/11 02:56:01;;;;;;;2.40;0.50;;;;;;;;;;5050489;28;20224;-67
2023/01/11 02:58:33;;;;;;;0.30;0.30;;;;;;;;;;5052388;28;20241;-67
2023/01/11 03:01:00;;;;;;;1.00;0.27;;;;;;;;;;5063353;28;20207;-67
2023/01/11 03:03:28;;;;;;;2.33;0.70;;;;;;;;;;5057960;28;20809;-66
2023/01/11 03:05:57;;;;;;;0.60;0.60;;;;;;;;;;5068625;28;20227;-67
2023/01/11 03:08:29;;;;;;;2.40;0.40;;;;;;;;;;5066558;28;20265;-66
2023/01/11 03:11:00;;;;;;;0.40;0.40;;;;;;;;;;5053346;28;20235;-66
2023/01/11 03:13:31;;;;;;;0.50;0.33;;;;;;;;;;5067685;28;20218;-66
2023/01/11 03:16:10;;;;;;;0.50;0.40;;;;;;;;;;5066588;28;20221;-66
2023/01/11 03:18:42;;;;;;;0.57;0.57;;;;;;;;;;5050093;28;20215;-66
2023/01/11 03:21:16;;;;;;;0.43;0.43;;;;;;;;;;5051121;28;20269;-66
2023/01/11 03:23:49;;;;;;;1.10;0.50;;;;;;;;;;5049708;28;20211;-67
2023/01/11 03:26:33;;;;;;;1.13;0.40;;;;;;;;;;5060848;28;20335;-66
2023/01/11 03:29:06;;;;;;;1.43;0.40;;;;;;;;;;5066502;28;20272;-66
2023/01/11 03:31:35;;;;;;;0.27;0.23;;;;;;;;;;5051871;28;20236;-66
2023/01/11 03:34:08;;;;;;;0.57;0.57;;;;;;;;;;5061917;28;20214;-66
2023/01/11 03:36:37;;;;;;;1.30;0.47;;;;;;;;;;5056853;28;20212;-66
2023/01/11 03:39:06;;;;;;;0.20;0.20;;;;;;;;;;5069364;28;20211;-66
2023/01/11 03:41:36;;;;;;;1.60;0.40;;;;;;;;;;5059518;28;20211;-66
2023/01/11 03:44:06;;;;;;;0.30;0.30;;;;;;;;;;5066178;28;20735;-66
2023/01/11 03:46:35;;;;;;;2.93;0.57;;;;;;;;;;5062697;28;20208;-67
2023/01/11 03:49:04;;;;;;;0.40;0.40;;;;;;;;;;5051976;28;20230;-67
2023/01/11 03:51:35;;;;;;;0.40;0.40;;;;;;;;;;5052837;28;20226;-67
2023/01/11 03:54:03;;;;;;;1.00;0.40;;;;;;;;;;5065634;28;20203;-67
2023/01/11 03:56:32;;;;;;;0.60;0.60;;;;;;;;;;5054401;28;20243;-67
2023/01/11 03:58:59;;;;;;;1.17;0.40;;;;;;;;;;5067931;28;20210;-66
2023/01/11 04:01:28;;;;;;;1.37;0.47;;;;;;;;;;5061574;28;20264;-67
2023/01/11 04:03:55;;;;;;;0.43;0.13;;;;;;;;;;5068768;28;20247;-67
2023/01/11 04:06:22;;;;;;;1.30;0.30;;;;;;;;;;5063139;28;20199;-67
2023/01/11 04:08:49;;;;;;;0.20;0.20;;;;;;;;;;5065390;28;20214;-67
2023/01/11 04:11:16;;;;;;;2.73;0.30;;;;;;;;;;5060572;28;20224;-67
2023/01/11 04:13:43;;;;;;;0.20;0.20;;;;;;;;;;5062063;28;20352;-67
2023/01/11 04:16:10;;;;;;;1.80;0.30;;;;;;;;;;5063464;28;20254;-67
2023/01/11 04:18:40;;;;;;;0.33;0.33;;;;;;;;;;5056940;28;20207;-67
2023/01/11 04:21:07;;;;;;;1.90;0.60;;;;;;;;;;5061160;28;20789;-67
2023/01/11 04:23:34;;;;;;;1.47;0.47;;;;;;;;;;5048781;28;20203;-66
2023/01/11 04:26:01;;;;;;;2.33;0.60;;;;;;;;;;5060798;28;20204;-66
2023/01/11 04:28:28;;;;;;;0.40;0.40;;;;;;;;;;5068670;28;20265;-66
2023/01/11 04:30:55;;;;;;;1.80;0.67;;;;;;;;;;5054240;28;20227;-67
2023/01/11 04:33:22;;;;;;;0.47;0.40;;;;;;;;;;5053075;28;20214;-67
2023/01/11 04:35:50;;;;;;;0.40;0.40;;;;;;;;;;5055959;28;20265;-67
2023/01/11 04:38:18;;;;;;;0.50;0.50;;;;;;;;;;5062408;28;20214;-67
2023/01/11 04:40:45;;;;;;;0.77;0.33;;;;;;;;;;5048579;28;21004;-66
2023/01/11 04:43:11;;;;;;;3.10;0.40;;;;;;;;;;5056511;28;20207;-67
2023/01/11 04:45:38;;;;;;;0.20;0.20;;;;;;;;;;5053533;28;20230;-67
2023/01/11 04:48:05;;;;;;;0.23;0.23;;;;;;;;;;5048539;28;20227;-67
2023/01/11 04:50:33;;;;;;;2.10;0.97;;;;;;;;;;5064545;28;20207;-67
2023/01/11 04:53:01;;;;;;;0.40;0.40;;;;;;;;;;5065243;28;20237;-67
2023/01/11 04:55:28;;;;;;;0.93;0.30;;;;;;;;;;5056153;28;20653;-67
2023/01/11 04:57:55;;;;;;;1.33;0.50;;;;;;;;;;5065888;28;20260;-66
2023/01/11 05:00:22;;;;;;;1.07;0.50;;;;;;;;;;5053276;28;20786;-67
2023/01/11 05:02:49;;;;;;;2.03;0.40;;;;;;;;;;5064629;28;20211;-67
2023/01/11 05:05:16;;;;;;;0.43;0.40;;;;;;;;;;5055679;28;20212;-67
2023/01/11 05:07:43;;;;;;;0.63;0.33;;;;;;;;;;5070323;28;20882;-66
2023/01/11 05:10:12;;;;;;;1.50;0.30;;;;;;;;;;5067745;28;20296;-67
2023/01/11 05:12:39;;;;;;;0.33;0.33;;;;;;;;;;5067084;28;20239;-67
2023/01/11 05:15:07;;;;;;;0.50;0.50;;;;;;;;;;5068798;28;20222;-67
2023/01/11 05:17:34;;;;;;;0.30;0.30;;;;;;;;;;5070796;28;20233;-67
2023/01/11 05:20:01;;;;;;;0.30;0.30;;;;;;;;;;5069389;28;20363;-67
2023/01/11 05:22:28;;;;;;;4.20;0.63;;;;;;;;;;5063101;28;20203;-67
2023/01/11 05:24:55;;;;;;;0.40;0.40;;;;;;;;;;5055661;28;20212;-67
2023/01/11 05:27:23;;;;;;;0.60;0.47;;;;;;;;;;5065178;28;20207;-67
2023/01/11 05:29:50;;;;;;;0.90;0.67;;;;;;;;;;5061610;28;20285;-67
2023/01/11 05:32:17;;;;;;;0.70;0.50;;;;;;;;;;5058715;28;20245;-67
2023/01/11 05:34:44;;;;;;;1.13;0.57;;;;;;;;;;5060957;28;20206;-67
2023/01/11 05:37:11;;;;;;;0.57;0.57;;;;;;;;;;5059458;28;20251;-66
2023/01/11 05:39:38;;;;;;;0.40;0.40;;;;;;;;;;5060752;28;20216;-67
2023/01/11 05:42:05;;;;;;;0.50;0.50;;;;;;;;;;5068863;28;20619;-67
2023/01/11 05:47:18;;;;;;;0.67;0.67;;;;;;;;;;5059076;28;20218;-67
2023/01/11 05:49:45;;;;;;;2.10;0.70;;;;;;;;;;5067186;28;20208;-66
2023/01/11 05:52:12;;;;;;;0.40;0.40;;;;;;;;;;5060823;28;20280;-67
2023/01/11 05:54:39;;;;;;;1.43;0.57;;;;;;;;;;5069612;28;20207;-67
2023/01/11 05:57:10;;;;;;;1.23;0.53;;;;;;;;;;5060539;28;20709;-67
2023/01/11 05:59:38;;;;;;;1.13;1.03;;;;;;;;;;5059078;28;20208;-66
2023/01/11 06:02:05;;;;;;;0.40;0.40;;;;;;;;;;5059445;28;20898;-67
2023/01/11 06:04:32;;;;;;;1.20;1.00;;;;;;;;;;5063183;28;20237;-67
2023/01/11 06:06:59;;;;;;;4.07;0.50;;;;;;;;;;5050233;28;20210;-67
2023/01/11 06:09:27;;;;;;;1.20;0.50;;;;;;;;;;5050264;28;20611;-67
2023/01/11 06:11:55;;;;;;;0.40;0.40;;;;;;;;;;5049742;28;20306;-67
2023/01/11 06:14:22;;;;;;;0.30;0.30;;;;;;;;;;5049714;28;20269;-67
2023/01/11 06:16:50;;;;;;;0.63;0.60;;;;;;;;;;5058060;28;20270;-67
2023/01/11 06:19:17;;;;;;;0.43;0.43;;;;;;;;;;5064297;28;20244;-67
2023/01/11 06:21:44;;;;;;;0.87;0.40;;;;;;;;;;5068274;28;20608;-67
2023/01/11 06:24:11;;;;;;;0.30;0.30;;;;;;;;;;5067982;28;20203;-67
2023/01/11 06:26:38;;;;;;;0.67;0.30;;;;;;;;;;5056158;28;20212;-67
2023/01/11 06:29:05;;;;;;;4.93;0.30;;;;;;;;;;5052745;28;20203;-67
2023/01/11 06:31:32;;;;;;;0.83;0.40;;;;;;;;;;5067567;28;20235;-67
2023/01/11 06:34:01;;;;;;;0.33;0.30;;;;;;;;;;5051389;28;20211;-67
2023/01/11 06:36:28;;;;;;;0.20;0.20;;;;;;;;;;5055075;28;20211;-67
2023/01/11 06:38:55;;;;;;;0.60;0.20;;;;;;;;;;5050272;28;20211;-63
2023/01/11 06:41:22;;;;;;;0.93;0.30;;;;;;;;;;5058236;28;20210;-67
2023/01/11 06:43:50;;;;;;;0.50;0.50;;;;;;;;;;5058712;28;20198;-67
2023/01/11 06:46:18;;;;;;;0.30;0.30;;;;;;;;;;5065956;28;20707;-66
2023/01/11 06:48:45;;;;;;;0.20;0.20;;;;;;;;;;5068478;28;20748;-67
2023/01/11 06:51:14;;;;;;;0.10;0.10;;;;;;;;;;5063289;28;20364;-68
2023/01/11 06:53:42;;;;;;;0.30;0.30;;;;;;;;;;5050032;28;20212;-67
2023/01/11 06:56:11;;;;;;;0.20;0.20;;;;;;;;;;5049536;28;20780;-67
2023/01/11 06:58:38;;;;;;;0.20;0.20;;;;;;;;;;5049111;28;20265;-69
2023/01/11 07:01:05;;;;;;;0.30;0.30;;;;;;;;;;5049060;28;20219;-67
2023/01/11 07:03:32;;;;;;;2.97;0.30;;;;;;;;;;5055897;28;20219;-67
2023/01/11 07:05:59;;;;;;;0.20;0.20;;;;;;;;;;5069525;28;20261;-67
2023/01/11 07:08:29;;;;;;;0.40;0.40;;;;;;;;;;5058230;28;20268;-67
2023/01/11 07:10:56;;;;;;;0.10;0.10;;;;;;;;;;5058746;28;20293;-67
2023/01/11 07:13:23;;;;;;;1.83;0.30;;;;;;;;;;5052956;28;20280;-68
2023/01/11 07:15:52;;;;;;;0.20;0.20;;;;;;;;;;5069352;28;20288;-67
2023/01/11 07:18:20;;;;;;;0.33;0.33;;;;;;;;;;5051863;28;20245;-67
2023/01/11 07:20:47;;;;;;;5.30;0.40;;;;;;;;;;5048466;28;20208;-67
2023/01/11 07:23:14;;;;;;;0.30;0.30;;;;;;;;;;5050225;28;20212;-67
2023/01/11 07:25:42;;;;;;;0.77;0.33;;;;;;;;;;5049223;28;20284;-67
2023/01/11 07:28:09;;;;;;;0.30;0.30;;;;;;;;;;5060464;28;20195;-68
2023/01/11 07:30:37;;;;;;;0.40;0.40;;;;;;;;;;5049180;28;20614;-65
2023/01/11 07:33:06;;;;;;;0.30;0.30;;;;;;;;;;5059697;28;20235;-68
2023/01/11 07:35:33;;;;;;;0.30;0.30;;;;;;;;;;5066820;28;20219;-68
2023/01/11 07:38:01;;;;;;;0.40;0.40;;;;;;;;;;5049587;28;20214;-68
2023/01/11 07:40:28;;;;;;;0.40;0.40;;;;;;;;;;5048639;28;20605;-68
2023/01/11 07:43:13;;;;;;;0.73;0.37;;;;;;;;;;5047917;28;20204;-68
2023/01/11 07:45:41;;;;;;;0.30;0.30;;;;;;;;;;5048533;28;20417;-68
2023/01/11 07:48:09;;;;;;;0.30;0.30;;;;;;;;;;5048995;28;20215;-68
2023/01/11 07:50:36;;;;;;;0.40;0.40;;;;;;;;;;5048834;28;20257;-69
2023/01/11 07:53:03;;;;;;;0.20;0.20;;;;;;;;;;5061220;28;20223;-66
2023/01/11 07:55:31;;;;;;;0.43;0.40;;;;;;;;;;5062013;28;20234;-67
2023/01/11 07:57:59;;;;;;;0.40;0.40;;;;;;;;;;5063883;28;20257;-67
2023/01/11 08:00:27;;;;;;;0.63;0.30;;;;;;;;;;5051416;28;20215;-66
2023/01/11 08:02:55;;;;;;;0.37;0.37;;;;;;;;;;5054562;28;20545;-67
2023/01/11 08:05:22;;;;;;;0.30;0.30;;;;;;;;;;5067918;28;20211;-67
2023/01/11 08:07:49;;;;;;;0.50;0.50;;;;;;;;;;5054926;28;20211;-67
2023/01/11 08:10:16;;;;;;;0.77;0.77;;;;;;;;;;5067308;28;20728;-67
2023/01/11 08:15:31;;;;;;;0.40;0.40;;;;;;;;;;5059212;28;20514;-67
2023/01/11 08:17:58;;;;;;;0.27;0.27;;;;;;;;;;5068031;28;20215;-67
2023/01/11 08:20:28;;;;;;;0.20;0.20;;;;;;;;;;5068015;28;20218;-67
2023/01/11 08:22:56;;;;;;;1.27;0.30;;;;;;;;;;5061011;28;20212;-67
2023/01/11 08:25:24;;;;;;;0.40;0.40;;;;;;;;;;5048654;28;20385;-67
2023/01/11 08:27:51;;;;;;;0.40;0.40;;;;;;;;;;5060540;28;20207;-67
2023/01/11 08:30:18;;;;;;;0.30;0.30;;;;;;;;;;5067907;28;20416;-67
2023/01/11 08:32:46;;;;;;;0.30;0.30;;;;;;;;;;5068338;28;20237;-70
2023/01/11 08:35:13;;;;;;;0.33;0.33;;;;;;;;;;5067971;28;20709;-67
2023/01/11 08:37:40;;;;;;;0.40;0.40;;;;;;;;;;5066976;28;20237;-67
2023/01/11 08:40:08;;;;;;;0.67;0.67;;;;;;;;;;5062501;28;20228;-67
2023/01/11 08:42:35;;;;;;;1.13;0.43;;;;;;;;;;5059842;28;20211;-67
2023/01/11 08:45:02;;;;;;;0.20;0.20;;;;;;;;;;5056169;28;20202;-67
2023/01/11 08:47:29;;;;;;;0.50;0.43;;;;;;;;;;5055539;28;20207;-67
2023/01/11 08:49:58;;;;;;;0.60;0.43;;;;;;;;;;5055200;28;20239;-67
2023/01/11 08:52:25;;;;;;;3.50;0.50;;;;;;;;;;5057730;28;20235;-67
2023/01/11 08:54:52;;;;;;;0.40;0.40;;;;;;;;;;5055046;28;20203;-67
2023/01/11 08:57:19;;;;;;;0.30;0.30;;;;;;;;;;5058715;28;20234;-67
2023/01/11 08:59:46;;;;;;;0.33;0.33;;;;;;;;;;5054441;28;20604;-68
2023/01/11 09:02:13;;;;;;;0.53;0.37;;;;;;;;;;5055486;28;20289;-66
2023/01/11 09:04:40;;;;;;;0.40;0.33;;;;;;;;;;5057991;28;20276;-67
2023/01/11 09:07:08;;;;;;;0.30;0.30;;;;;;;;;;5056617;28;20670;-68
2023/01/11 09:09:35;;;;;;;0.40;0.40;;;;;;;;;;5058009;28;20245;-66
2023/01/11 09:12:03;;;;;;;0.47;0.47;;;;;;;;;;5046084;28;20315;-68
2023/01/11 09:14:30;;;;;;;0.40;0.40;;;;;;;;;;5051042;28;20204;-71
2023/01/11 09:16:57;;;;;;;0.30;0.30;;;;;;;;;;5056143;28;20199;-67
2023/01/11 09:19:24;;;;;;;0.50;0.50;;;;;;;;;;5055642;28;20215;-64
2023/01/11 09:21:52;;;;;;;1.20;0.50;;;;;;;;;;5055340;28;20212;-67
2023/01/11 09:24:20;;;;;;;0.63;0.63;;;;;;;;;;5057642;28;20222;-69
2023/01/11 09:26:47;;;;;;;0.50;0.30;;;;;;;;;;5056256;28;20310;-69
2023/01/11 09:29:14;;;;;;;0.60;0.60;;;;;;;;;;5056322;28;20211;-69
2023/01/11 09:31:41;;;;;;;0.60;0.57;;;;;;;;;;5052779;28;20210;-69
2023/01/11 09:34:11;;;;;;;0.40;0.40;;;;;;;;;;5055859;28;20700;-68
2023/01/11 09:36:39;;;;;;;0.67;0.57;;;;;;;;;;5053317;28;20211;-69
2023/01/11 09:39:09;;;;;;;0.60;0.60;;;;;;;;;;5057787;28;20290;-66
2023/01/11 09:41:50;;;;;;;0.93;0.60;;;;;;;;;;5055798;28;20592;-67
2023/01/11 09:44:21;;;;;;;0.60;0.43;;;;;;;;;;5056158;28;20203;-67
2023/01/11 09:46:50;;;;;;;0.47;0.47;;;;;;;;;;5060750;28;20269;-66
2023/01/11 09:49:21;;;;;;;1.67;0.60;;;;;;;;;;5060898;28;20219;-67
2023/01/11 09:51:50;;;;;;;0.50;0.50;;;;;;;;;;5055720;28;20257;-68
2023/01/11 09:54:18;;;;;;;0.43;0.43;;;;;;;;;;5069112;28;20733;-66
2023/01/11 09:56:51;;;;;;;0.40;0.40;;;;;;;;;;5054941;28;20228;-67
2023/01/11 09:59:23;;;;;;;0.47;0.47;;;;;;;;;;5065113;28;20211;-71
2023/01/11 10:01:54;;;;;;;0.50;0.50;;;;;;;;;;5064057;28;20203;-67
2023/01/11 10:04:35;;;;;;;1.40;0.57;;;;;;;;;;5051537;28;20211;-65
2023/01/11 10:07:14;;;;;;;0.43;0.43;;;;;;;;;;5065709;28;20639;-67
2023/01/11 10:09:45;;;;;;;0.43;0.40;;;;;;;;;;5052861;28;20238;-67
2023/01/11 10:12:18;;;;;;;0.50;0.50;;;;;;;;;;5056204;28;20208;-67
2023/01/11 10:14:54;;;;;;;0.63;0.40;;;;;;;;;;5061946;28;20294;-67
2023/01/11 10:17:29;;;;;;;1.90;0.50;;;;;;;;;;5070460;28;20211;-67
2023/01/11 10:20:00;;;;;;;0.33;0.33;;;;;;;;;;5068912;28;20215;-67
2023/01/11 10:22:32;;;;;;;3.33;0.33;;;;;;;;;;5058839;28;20563;-67
2023/01/11 10:25:02;;;;;;;0.60;0.60;;;;;;;;;;5053755;28;20219;-67
2023/01/11 10:27:35;;;;;;;1.00;0.47;;;;;;;;;;5057901;28;20224;-68
2023/01/11 10:30:18;;;;;;;0.53;0.50;;;;;;;;;;5050890;28;20215;-67
2023/01/11 10:32:58;;;;;;;0.47;0.47;;;;;;;;;;5070310;28;20227;-68
2023/01/11 10:35:44;;;;;;;0.67;0.50;;;;;;;;;;5070348;28;20684;-67
2023/01/11 10:38:29;;;;;;;1.17;0.70;;;;;;;;;;5069358;28;20329;-67
2023/01/11 10:41:05;;;;;;;0.50;0.50;;;;;;;;;;5058758;28;20208;-68
2023/01/11 10:43:35;;;;;;;0.40;0.40;;;;;;;;;;5055483;28;20245;-68
2023/01/11 10:46:06;;;;;;;0.30;0.30;;;;;;;;;;5047490;28;20305;-69
2023/01/11 10:48:34;;;;;;;0.40;0.40;;;;;;;;;;5048560;28;20215;-69
2023/01/11 10:51:04;;;;;;;0.57;0.30;;;;;;;;;;5048366;28;20619;-68
2023/01/11 10:53:35;;;;;;;0.83;0.80;;;;;;;;;;5059048;28;20235;-68
2023/01/11 10:56:07;;;;;;;0.50;0.50;;;;;;;;;;5048121;28;20224;-68
2023/01/11 10:58:44;;;;;;;0.50;0.50;;;;;;;;;;5058721;28;20199;-68
2023/01/11 11:01:17;;;;;;;0.47;0.47;;;;;;;;;;5053379;28;20307;-68
2023/01/11 11:03:49;;;;;;;0.50;0.50;;;;;;;;;;5053330;28;20199;-68
2023/01/11 11:06:20;;;;;;;1.60;0.50;;;;;;;;;;5054908;28;20710;-68
2023/01/11 11:08:50;;;;;;;0.20;0.20;;;;;;;;;;5056436;28;20208;-67
2023/01/11 11:11:19;;;;;;;2.33;0.40;;;;;;;;;;5045817;28;20215;-68
2023/01/11 11:13:52;;;;;;;0.30;0.30;;;;;;;;;;5050650;28;20593;-68
2023/01/11 11:16:30;;;;;;;0.40;0.40;;;;;;;;;;5055817;28;20207;-68
2023/01/11 11:18:59;;;;;;;0.80;0.80;;;;;;;;;;5057133;28;20206;-69
2023/01/11 11:21:28;;;;;;;0.30;0.30;;;;;;;;;;5057369;28;20215;-68
2023/01/11 11:23:57;;;;;;;0.43;0.20;;;;;;;;;;5055863;28;20620;-68
2023/01/11 11:26:26;;;;;;;0.13;0.13;;;;;;;;;;5056857;28;20277;-68
2023/01/11 11:29:02;;;;;;;0.30;0.30;;;;;;;;;;5055956;28;20363;-72
2023/01/11 11:31:29;;;;;;;0.30;0.30;;;;;;;;;;5057565;28;20211;-76
2023/01/11 11:33:57;;;;;;;0.30;0.30;;;;;;;;;;5057033;28;20224;-77
2023/01/11 11:36:25;;;;;;;0.40;0.40;;;;;;;;;;5056962;28;20576;-68
2023/01/11 11:39:04;;;;;;;0.53;0.53;;;;;;;;;;5054985;28;20306;-72
2023/01/11 11:41:45;;;;;;;0.47;0.40;;;;;;;;;;5058089;28;20218;-74
2023/01/11 11:44:18;;;;;;;0.47;0.47;;;;;;;;;;5053764;28;20268;-79
2023/01/11 11:46:56;;;;;;;0.40;0.40;;;;;;;;;;5047696;28;20229;-74
2023/01/11 11:49:23;;;;;;;0.50;0.50;;;;;;;;;;5054085;28;20649;-74
2023/01/11 11:51:51;;;;;;;0.40;0.40;;;;;;;;;;5055327;28;20297;-74
2023/01/11 11:54:20;;;;;;;0.30;0.30;;;;;;;;;;5050289;28;20710;-74
2023/01/11 11:56:48;;;;;;;0.30;0.30;;;;;;;;;;5056393;28;20223;-74
2023/01/11 11:59:18;;;;;;;0.30;0.30;;;;;;;;;;5056165;28;20206;-74
2023/01/11 12:01:47;;;;;;;0.40;0.40;;;;;;;;;;5057446;28;20196;-74
2023/01/11 12:04:15;;;;;;;0.30;0.30;;;;;;;;;;5055817;28;20196;-74
2023/01/11 12:06:42;;;;;;;0.20;0.20;;;;;;;;;;5055917;28;20202;-74
2023/01/11 12:09:11;;;;;;;0.67;0.40;;;;;;;;;;5052092;28;20310;-74
2023/01/11 12:11:40;;;;;;;0.50;0.50;;;;;;;;;;5049503;28;20640;-74
2023/01/11 12:14:17;;;;;;;0.40;0.40;;;;;;;;;;5047986;28;20594;-75
2023/01/11 12:16:44;;;;;;;0.53;0.47;;;;;;;;;;5049587;28;20673;-74
2023/01/11 12:19:28;;;;;;;0.73;0.40;;;;;;;;;;5050718;28;20207;-74
2023/01/11 12:22:10;;;;;;;0.30;0.30;;;;;;;;;;5062133;28;20670;-74
2023/01/11 12:24:37;;;;;;;0.60;0.60;;;;;;;;;;5062663;28;20215;-71
2023/01/11 12:27:12;;;;;;;0.77;0.77;;;;;;;;;;5056416;28;20708;-74
2023/01/11 12:29:47;;;;;;;2.03;1.03;;;;;;;;;;5066568;28;20237;-73
2023/01/11 12:32:29;;;;;;;2.27;2.07;;;;;;;;;;5060686;28;20428;-73
2023/01/11 12:35:14;;;;;;;0.90;0.90;;;;;;;;;;5049825;28;20598;-70
2023/01/11 12:37:58;;;;;;;0.67;0.50;;;;;;;;;;5053730;28;20206;-72
2023/01/11 12:40:30;;;;;;;0.47;0.47;;;;;;;;;;5054108;28;20262;-74
2023/01/11 12:43:04;;;;;;;0.90;0.90;;;;;;;;;;5057727;28;20294;-74
2023/01/11 12:45:38;;;;;;;0.40;0.40;;;;;;;;;;5054590;28;20215;-70
2023/01/11 12:48:10;;;;;;;0.43;0.43;;;;;;;;;;5062209;28;20222;-74
2023/01/11 12:50:41;;;;;;;0.50;0.40;;;;;;;;;;5068470;28;20210;-77
2023/01/11 12:53:18;;;;;;;0.50;0.50;;;;;;;;;;5058112;28;20211;-69
2023/01/11 12:55:53;;;;;;;0.20;0.20;;;;;;;;;;5062578;28;20306;-74
2023/01/11 12:58:22;;;;;;;0.40;0.40;;;;;;;;;;5049142;28;20213;-75
2023/01/11 13:01:11;;;;;;;15.40;9.33;;;;;;;;;;5048794;28;20286;-75
2023/01/11 13:04:00;;;;;;;182.70;100.27;;;;;;;;;;5058860;28;20247;-67
2023/01/11 13:06:32;;;;;;;8.50;4.80;;;;;;;;;;5058844;28;20854;-74
2023/01/11 13:09:02;;;;;;;2.20;1.90;;;;;;;;;;5063067;28;20635;-77
2023/01/11 13:11:37;;;;;;;3.20;0.97;;;;;;;;;;5059182;28;20218;-77
2023/01/11 13:14:14;;;;;;;0.60;0.30;;;;;;;;;;5058122;28;20223;-77
2023/01/11 13:16:47;;;;;;;0.13;0.10;;;;;;;;;;5059671;28;20217;-77
2023/01/11 13:19:17;;;;;;;0.10;0.10;;;;;;;;;;5059924;28;20282;-79
2023/01/11 13:21:52;;;;;;;0.17;0.10;;;;;;;;;;5044933;28;20584;-78
2023/01/11 13:24:25;;;;;;;0.17;0.17;;;;;;;;;;5065480;28;20230;-77
2023/01/11 13:26:52;;;;;;;0.10;0.10;;;;;;;;;;5050323;28;20235;-75
2023/01/11 13:29:23;;;;;;;0.10;0.10;;;;;;;;;;5052476;28;20211;-77
2023/01/11 13:31:53;;;;;;;0.10;0.10;;;;;;;;;;5062785;28;20688;-78
2023/01/11 13:34:24;;;;;;;0.13;0.13;;;;;;;;;;5071162;28;20227;-78
2023/01/11 13:36:54;;;;;;;0.10;0.10;;;;;;;;;;5053038;28;20215;-78
2023/01/11 13:39:23;;;;;;;0.03;0.03;;;;;;;;;;5051818;28;20203;-77
2023/01/11 13:41:52;;;;;;;0.10;0.10;;;;;;;;;;5062572;28;20210;-78
2023/01/11 13:44:22;;;;;;;0.00;0.00;;;;;;;;;;5071030;28;20191;-79
2023/01/11 13:46:54;;;;;;;0.47;0.30;;;;;;;;;;5071215;28;20218;-78
2023/01/11 13:49:35;;;;;;;0.30;0.30;;;;;;;;;;5071568;28;20215;-78
2023/01/11 13:52:04;;;;;;;0.40;0.40;;;;;;;;;;5071682;28;20217;-78
2023/01/11 13:54:35;;;;;;;2.37;0.43;;;;;;;;;;5071312;28;20234;-77
2023/01/11 13:57:04;;;;;;;0.57;0.50;;;;;;;;;;5049849;28;20807;-77
2023/01/11 13:59:33;;;;;;;1.23;0.63;;;;;;;;;;5053542;28;20216;-78
2023/01/11 14:02:04;;;;;;;1.10;1.10;;;;;;;;;;5057257;28;20211;-75
2023/01/11 14:04:36;;;;;;;2.30;1.67;;;;;;;;;;5061638;28;20462;-77
2023/01/11 14:07:10;;;;;;;1.17;1.10;;;;;;;;;;5058652;28;20264;-78
2023/01/11 14:09:47;;;;;;;0.77;0.73;;;;;;;;;;5055315;28;20662;-77
2023/01/11 14:12:16;;;;;;;0.77;0.70;;;;;;;;;;5050896;28;20207;-77
2023/01/11 14:14:51;;;;;;;0.57;0.57;;;;;;;;;;5052047;28;20231;-77
2023/01/11 14:17:27;;;;;;;0.40;0.40;;;;;;;;;;5060358;28;20613;-78
2023/01/11 14:19:57;;;;;;;0.67;0.53;;;;;;;;;;5069591;28;20202;-78
2023/01/11 14:22:31;;;;;;;0.83;0.30;;;;;;;;;;5052349;28;20215;-77
2023/01/11 14:25:01;;;;;;;0.80;0.43;;;;;;;;;;5050609;28;20208;-78
2023/01/11 14:27:37;;;;;;;0.70;0.70;;;;;;;;;;5050733;28;20242;-70
2023/01/11 14:30:10;;;;;;;6.63;3.03;;;;;;;;;;5050876;28;20705;-75
2023/01/11 14:32:55;;;;;;;15.73;5.97;;;;;;;;;;5065535;28;20621;-76
2023/01/11 14:35:38;;;;;;;12.30;3.93;;;;;;;;;;5068435;28;20736;-72
2023/01/11 14:38:20;;;;;;;2.93;1.63;;;;;;;;;;5059353;28;20208;-75
2023/01/11 14:41:04;;;;;;;2.73;1.70;;;;;;;;;;5067465;28;20210;-78
2023/01/11 14:43:39;;;;;;;1.73;1.30;;;;;;;;;;5058898;28;20211;-72
2023/01/11 14:46:31;;;;;;;4.00;1.10;;;;;;;;;;5068247;28;20218;-83
2023/01/11 14:49:07;;;;;;;1.13;0.90;;;;;;;;;;5070588;28;20219;-78
2023/01/11 14:51:37;;;;;;;2.83;0.70;;;;;;;;;;5067968;28;20210;-74
2023/01/11 14:54:06;;;;;;;1.07;0.70;;;;;;;;;;5063382;28;20227;-76
2023/01/11 14:56:37;;;;;;;1.67;1.00;;;;;;;;;;5057154;28;20228;-76
2023/01/11 14:59:05;;;;;;;4.13;0.60;;;;;;;;;;5069241;28;20719;-77
2023/01/11 15:02:07;;;;;;;1.00;0.80;;;;;;;;;;5076088;28;20222;-64
2023/01/11 15:04:36;;;;;;;2.77;1.27;;;;;;;;;;5055071;28;20828;-78
2023/01/11 15:07:22;;;;;;;3.67;0.80;;;;;;;;;;5051691;28;20215;-75
2023/01/11 15:09:50;;;;;;;1.03;1.00;;;;;;;;;;5055805;28;20235;-73
2023/01/11 15:12:18;;;;;;;1.27;1.23;;;;;;;;;;5067407;28;20253;-77
2023/01/11 15:14:46;;;;;;;1.20;1.20;;;;;;;;;;5052145;28;20216;-76
2023/01/11 15:20:08;;;;;;;1.00;0.67;;;;;;;;;;5067216;28;20202;-74